createdAt,value
2023-07-02T00:00:47.507Z,18.80
2023-07-02T00:03:23.055Z,18.80
2023-07-02T00:05:58.333Z,18.80
2023-07-02T00:08:30.829Z,18.80
2023-07-02T00:10:58.896Z,18.80
2023-07-02T00:13:26.926Z,18.70
2023-07-02T00:16:04.209Z,18.80
2023-07-02T00:18:35.265Z,18.70
2023-07-02T00:21:07.642Z,18.80
2023-07-02T00:23:39.792Z,18.70
2023-07-02T00:26:12.514Z,18.70
2023-07-02T00:28:40.736Z,18.70
2023-07-02T00:31:14.850Z,18.60
2023-07-02T00:33:45.135Z,18.60
2023-07-02T00:36:16.502Z,18.50
2023-07-02T00:38:48.721Z,18.60
2023-07-02T00:41:23.147Z,18.60
2023-07-02T00:43:51.318Z,18.60
2023-07-02T00:46:23.686Z,18.60
2023-07-02T00:48:55.860Z,18.60
2023-07-02T00:51:30.120Z,18.70
2023-07-02T00:54:02.270Z,18.60
2023-07-02T00:56:30.595Z,18.60
2023-07-02T00:59:14.192Z,18.60
2023-07-02T01:01:54.166Z,18.50
2023-07-02T01:04:28.547Z,18.50
2023-07-02T01:06:58.666Z,18.60
2023-07-02T01:09:30.948Z,18.60
2023-07-02T01:12:02.230Z,18.60
2023-07-02T01:14:35.409Z,18.60
2023-07-02T01:17:09.245Z,18.60
2023-07-02T01:19:46.178Z,18.60
2023-07-02T01:22:43.026Z,18.60
2023-07-02T01:25:18.319Z,18.60
2023-07-02T01:27:51.831Z,18.60
2023-07-02T01:30:26.045Z,18.60
2023-07-02T01:33:05.842Z,18.50
2023-07-02T01:35:40.831Z,18.50
2023-07-02T01:38:09.107Z,18.50
2023-07-02T01:40:39.908Z,18.50
2023-07-02T01:43:10.684Z,18.60
2023-07-02T01:45:40.036Z,18.60
2023-07-02T01:48:16.109Z,18.60
2023-07-02T01:50:45.697Z,18.50
2023-07-02T01:53:19.951Z,18.50
2023-07-02T01:55:56.868Z,18.50
2023-07-02T01:58:33.406Z,18.50
2023-07-02T02:01:04.200Z,18.50
2023-07-02T02:03:38.560Z,18.50
2023-07-02T02:06:10.957Z,18.50
2023-07-02T02:08:38.972Z,18.50
2023-07-02T02:11:09.824Z,18.50
2023-07-02T02:13:46.774Z,18.60
2023-07-02T02:16:20.777Z,18.50
2023-07-02T02:18:52.913Z,18.50
2023-07-02T02:21:22.774Z,18.60
2023-07-02T02:23:51.017Z,18.60
2023-07-02T02:26:19.196Z,18.50
2023-07-02T02:28:47.187Z,18.50
2023-07-02T02:31:26.620Z,18.50
2023-07-02T02:34:00.468Z,18.50
2023-07-02T02:36:33.569Z,18.50
2023-07-02T02:39:06.051Z,18.50
2023-07-02T02:41:37.242Z,18.50
2023-07-02T02:44:05.431Z,18.50
2023-07-02T02:46:33.746Z,18.50
2023-07-02T02:49:01.890Z,18.50
2023-07-02T02:51:29.917Z,18.40
2023-07-02T02:54:02.284Z,18.40
2023-07-02T02:56:30.274Z,18.40
2023-07-02T02:59:01.292Z,18.50
2023-07-02T03:01:32.706Z,18.50
2023-07-02T03:04:01.781Z,18.50
2023-07-02T03:06:36.090Z,18.50
2023-07-02T03:09:14.331Z,18.60
2023-07-02T03:11:45.211Z,18.50
2023-07-02T03:14:16.269Z,18.50
2023-07-02T03:16:56.900Z,18.50
2023-07-02T03:19:28.083Z,18.50
2023-07-02T03:21:59.124Z,18.50
2023-07-02T03:24:30.966Z,18.60
2023-07-02T03:27:01.127Z,18.50
2023-07-02T03:29:31.634Z,18.50
2023-07-02T03:32:04.384Z,18.50
2023-07-02T03:34:32.471Z,18.50
2023-07-02T03:37:00.516Z,18.60
2023-07-02T03:39:32.756Z,18.60
2023-07-02T03:42:03.884Z,18.60
2023-07-02T03:44:31.889Z,18.60
2023-07-02T03:47:04.227Z,18.40
2023-07-02T03:49:38.427Z,18.40
2023-07-02T03:52:07.258Z,18.30
2023-07-02T03:54:36.633Z,18.30
2023-07-02T03:57:10.086Z,18.30
2023-07-02T03:59:43.417Z,18.30
2023-07-02T04:02:23.808Z,18.40
2023-07-02T04:04:57.851Z,18.40
2023-07-02T04:07:25.902Z,18.50
2023-07-02T04:09:58.359Z,18.40
2023-07-02T04:12:38.662Z,18.40
2023-07-02T04:15:10.970Z,18.40
2023-07-02T04:17:38.999Z,18.40
2023-07-02T04:20:11.902Z,18.40
2023-07-02T04:22:39.900Z,18.40
2023-07-02T04:25:14.910Z,18.30
2023-07-02T04:27:59.667Z,18.30
2023-07-02T04:30:28.022Z,18.40
2023-07-02T04:32:58.984Z,18.40
2023-07-02T04:35:27.014Z,18.50
2023-07-02T04:38:00.905Z,18.50
2023-07-02T04:40:40.300Z,18.40
2023-07-02T04:43:08.328Z,18.40
2023-07-02T04:45:37.554Z,18.30
2023-07-02T04:48:06.087Z,18.40
2023-07-02T04:50:34.167Z,18.40
2023-07-02T04:53:07.190Z,18.50
2023-07-02T04:55:42.620Z,18.40
2023-07-02T04:58:10.665Z,18.40
2023-07-02T05:00:41.529Z,18.40
2023-07-02T05:03:18.896Z,18.40
2023-07-02T05:05:47.055Z,18.40
2023-07-02T05:08:17.980Z,18.50
2023-07-02T05:10:52.966Z,18.50
2023-07-02T05:13:33.085Z,18.50
2023-07-02T05:16:07.169Z,18.50
2023-07-02T05:18:47.194Z,18.50
2023-07-02T05:21:21.677Z,18.50
2023-07-02T05:23:56.159Z,18.50
2023-07-02T05:26:25.663Z,18.60
2023-07-02T05:28:56.662Z,18.70
2023-07-02T05:31:24.759Z,18.70
2023-07-02T05:33:52.841Z,18.80
2023-07-02T05:36:20.825Z,18.80
2023-07-02T05:38:51.658Z,18.80
2023-07-02T05:41:31.659Z,18.80
2023-07-02T05:44:05.840Z,18.80
2023-07-02T05:46:36.755Z,18.80
2023-07-02T05:49:08.129Z,18.90
2023-07-02T05:51:45.066Z,18.90
2023-07-02T05:54:23.581Z,19.00
2023-07-02T05:56:59.190Z,19.00
2023-07-02T05:59:30.006Z,19.00
2023-07-02T06:01:58.020Z,19.00
2023-07-02T06:04:28.991Z,19.10
2023-07-02T06:07:09.342Z,19.20
2023-07-02T06:09:40.498Z,19.30
2023-07-02T06:12:10.584Z,19.30
2023-07-02T06:14:38.605Z,19.20
2023-07-02T06:17:10.377Z,19.30
2023-07-02T06:19:50.776Z,19.30
2023-07-02T06:22:21.576Z,19.40
2023-07-02T06:24:49.578Z,19.50
2023-07-02T06:27:18.958Z,19.60
2023-07-02T06:29:50.816Z,19.70
2023-07-02T06:32:19.091Z,19.90
2023-07-02T06:34:52.926Z,19.90
2023-07-02T06:37:28.413Z,19.90
2023-07-02T06:39:56.797Z,20.00
2023-07-02T06:42:27.231Z,20.10
2023-07-02T06:44:55.268Z,20.20
2023-07-02T06:47:41.676Z,20.30
2023-07-02T06:50:10.164Z,20.50
2023-07-02T06:52:38.673Z,20.70
2023-07-02T06:55:07.474Z,20.80
2023-07-02T06:57:36.850Z,21.00
2023-07-02T07:00:05.541Z,21.00
2023-07-02T07:02:36.446Z,20.90
2023-07-02T07:05:08.098Z,20.80
2023-07-02T07:07:36.180Z,20.80
2023-07-02T07:10:05.013Z,21.00
2023-07-02T07:12:33.098Z,21.10
2023-07-02T07:15:02.659Z,21.40
2023-07-02T07:17:30.808Z,21.40
2023-07-02T07:19:58.899Z,21.50
2023-07-02T07:22:26.921Z,21.60
2023-07-02T07:24:57.770Z,21.60
2023-07-02T07:27:28.579Z,21.40
2023-07-02T07:29:56.585Z,21.50
2023-07-02T07:32:25.997Z,21.60
2023-07-02T07:34:54.013Z,21.50
2023-07-02T07:37:22.072Z,21.50
2023-07-02T07:39:50.103Z,21.50
2023-07-02T07:42:18.820Z,21.40
2023-07-02T07:44:47.379Z,21.40
2023-07-02T07:47:15.455Z,21.50
2023-07-02T07:49:44.823Z,21.80
2023-07-02T07:52:12.834Z,21.90
2023-07-02T07:54:40.857Z,21.90
2023-07-02T07:57:09.336Z,21.90
2023-07-02T07:59:37.352Z,21.90
2023-07-02T08:02:11.704Z,22.00
2023-07-02T08:04:39.866Z,22.00
2023-07-02T08:07:10.247Z,22.20
2023-07-02T08:09:38.405Z,22.30
2023-07-02T08:12:07.058Z,22.40
2023-07-02T08:14:36.233Z,22.10
2023-07-02T08:17:07.173Z,22.20
2023-07-02T08:19:41.247Z,22.30
2023-07-02T08:22:10.636Z,22.50
2023-07-02T08:24:44.750Z,22.60
2023-07-02T08:27:15.056Z,22.60
2023-07-02T08:29:43.289Z,22.80
2023-07-02T08:32:11.435Z,22.90
2023-07-02T08:34:42.595Z,22.90
2023-07-02T08:37:12.115Z,23.00
2023-07-02T08:39:41.162Z,23.10
2023-07-02T08:42:09.388Z,23.00
2023-07-02T08:44:40.267Z,22.80
2023-07-02T08:47:08.566Z,22.40
2023-07-02T08:49:36.717Z,22.30
2023-07-02T08:52:04.943Z,22.40
2023-07-02T08:54:34.373Z,22.30
2023-07-02T08:57:07.171Z,22.40
2023-07-02T08:59:41.013Z,22.40
2023-07-02T09:02:09.025Z,22.50
2023-07-02T09:04:39.942Z,22.80
2023-07-02T09:07:09.347Z,22.90
2023-07-02T09:10:06.516Z,22.90
2023-07-02T09:12:43.356Z,22.70
2023-07-02T09:15:11.486Z,22.80
2023-07-02T09:17:40.618Z,22.80
2023-07-02T09:20:09.988Z,22.80
2023-07-02T09:22:40.018Z,22.80
2023-07-02T09:25:12.706Z,22.80
2023-07-02T09:27:44.237Z,22.60
2023-07-02T09:30:14.894Z,22.30
2023-07-02T09:32:46.748Z,22.10
2023-07-02T09:35:17.354Z,22.10
2023-07-02T09:37:50.644Z,22.10
2023-07-02T09:40:30.122Z,22.20
2023-07-02T09:43:00.017Z,22.20
2023-07-02T09:45:37.566Z,22.20
2023-07-02T09:48:08.179Z,22.20
2023-07-02T09:50:39.639Z,22.00
2023-07-02T09:53:13.692Z,21.90
2023-07-02T09:55:45.043Z,21.80
2023-07-02T09:58:19.218Z,21.60
2023-07-02T10:00:56.083Z,21.50
2023-07-02T10:03:33.598Z,21.40
2023-07-02T10:06:10.467Z,21.20
2023-07-02T10:08:41.616Z,21.10
2023-07-02T10:11:20.018Z,21.10
2023-07-02T10:13:48.051Z,21.10
2023-07-02T10:16:16.053Z,20.90
2023-07-02T10:18:49.840Z,20.60
2023-07-02T10:21:18.948Z,20.20
2023-07-02T10:23:47.214Z,19.90
2023-07-02T10:26:20.467Z,19.70
2023-07-02T10:29:01.062Z,19.40
2023-07-02T10:31:29.174Z,19.30
2023-07-02T10:34:00.319Z,19.00
2023-07-02T10:36:38.747Z,18.90
2023-07-02T10:39:09.873Z,18.80
2023-07-02T10:41:39.253Z,18.80
2023-07-02T10:44:19.302Z,18.70
2023-07-02T10:46:59.645Z,18.70
2023-07-02T10:49:34.574Z,18.80
2023-07-02T10:52:06.159Z,19.00
2023-07-02T10:55:00.300Z,19.10
2023-07-02T10:57:35.189Z,19.30
2023-07-02T11:00:10.721Z,19.40
2023-07-02T11:02:54.720Z,19.40
2023-07-02T11:05:30.103Z,19.40
2023-07-02T11:08:10.571Z,19.50
2023-07-02T11:10:40.922Z,19.50
2023-07-02T11:13:26.030Z,19.70
2023-07-02T11:15:57.169Z,19.90
2023-07-02T11:18:25.285Z,20.20
2023-07-02T11:20:56.457Z,20.50
2023-07-02T11:23:28.161Z,20.70
2023-07-02T11:26:00.532Z,20.70
2023-07-02T11:28:36.837Z,20.90
2023-07-02T11:31:08.727Z,21.00
2023-07-02T11:33:42.163Z,21.00
2023-07-02T11:36:24.844Z,21.20
2023-07-02T11:38:57.576Z,21.30
2023-07-02T11:41:46.848Z,21.10
2023-07-02T11:44:16.771Z,20.90
2023-07-02T11:46:58.361Z,21.00
2023-07-02T11:49:32.701Z,21.10
2023-07-02T11:52:10.115Z,21.10
2023-07-02T11:54:39.448Z,21.10
2023-07-02T11:57:08.363Z,21.40
2023-07-02T11:59:43.980Z,21.60
2023-07-02T12:02:12.013Z,21.90
2023-07-02T12:04:41.259Z,22.10
2023-07-02T12:07:15.711Z,22.00
2023-07-02T12:09:52.743Z,22.00
2023-07-02T12:12:23.961Z,22.20
2023-07-02T12:14:53.313Z,22.20
2023-07-02T12:17:24.195Z,22.30
2023-07-02T12:19:52.268Z,22.30
2023-07-02T12:22:23.918Z,22.30
2023-07-02T12:24:57.324Z,22.50
2023-07-02T12:27:28.498Z,22.50
2023-07-02T12:30:00.226Z,22.50
2023-07-02T12:32:32.141Z,22.50
2023-07-02T12:35:03.474Z,22.40
2023-07-02T12:37:34.891Z,22.50
2023-07-02T12:40:06.376Z,22.50
2023-07-02T12:42:34.399Z,22.40
2023-07-02T12:45:03.793Z,22.30
2023-07-02T12:47:40.281Z,22.30
2023-07-02T12:50:09.652Z,22.20
2023-07-02T12:52:50.866Z,22.20
2023-07-02T12:55:18.905Z,22.00
2023-07-02T12:57:53.253Z,21.90
2023-07-02T13:00:23.018Z,22.00
2023-07-02T13:03:05.570Z,21.90
2023-07-02T13:05:37.409Z,21.90
2023-07-02T13:08:05.946Z,21.80
2023-07-02T13:10:36.987Z,21.90
2023-07-02T13:13:21.764Z,21.90
2023-07-02T13:15:52.773Z,22.00
2023-07-02T13:18:21.165Z,22.10
2023-07-02T13:20:49.269Z,22.30
2023-07-02T13:23:17.344Z,22.40
2023-07-02T13:25:45.382Z,22.60
2023-07-02T13:28:13.407Z,22.60
2023-07-02T13:30:41.412Z,22.70
2023-07-02T13:33:10.974Z,22.90
2023-07-02T13:35:42.288Z,23.00
2023-07-02T13:38:10.329Z,23.10
2023-07-02T13:40:44.322Z,23.00
2023-07-02T13:43:12.384Z,23.10
2023-07-02T13:45:40.444Z,23.10
2023-07-02T13:48:12.940Z,23.00
2023-07-02T13:50:46.604Z,23.00
2023-07-02T13:53:17.477Z,23.00
2023-07-02T13:55:54.773Z,23.00
2023-07-02T13:58:30.850Z,23.20
2023-07-02T14:01:00.356Z,23.50
2023-07-02T14:03:31.571Z,23.60
2023-07-02T14:05:59.730Z,23.70
2023-07-02T14:08:27.770Z,23.50
2023-07-02T14:10:58.615Z,23.30
2023-07-02T14:13:26.747Z,23.40
2023-07-02T14:15:54.839Z,23.40
2023-07-02T14:18:27.525Z,23.50
2023-07-02T14:20:55.531Z,23.40
2023-07-02T14:23:29.452Z,23.30
2023-07-02T14:25:57.454Z,23.30
2023-07-02T14:28:27.081Z,23.30
2023-07-02T14:30:59.002Z,23.40
2023-07-02T14:33:29.069Z,23.30
2023-07-02T14:35:57.275Z,23.30
2023-07-02T14:38:29.117Z,23.60
2023-07-02T14:40:58.331Z,23.70
2023-07-02T14:43:29.056Z,23.70
2023-07-02T14:46:01.138Z,23.70
2023-07-02T14:48:30.709Z,23.80
2023-07-02T14:51:00.912Z,23.90
2023-07-02T14:53:30.644Z,23.90
2023-07-02T14:56:04.963Z,23.80
2023-07-02T14:58:33.810Z,23.70
2023-07-02T15:01:02.090Z,23.70
2023-07-02T15:03:32.156Z,23.60
2023-07-02T15:06:14.135Z,23.50
2023-07-02T15:08:56.538Z,23.60
2023-07-02T15:11:29.126Z,23.60
2023-07-02T15:13:59.020Z,23.50
2023-07-02T15:16:27.092Z,23.40
2023-07-02T15:18:56.550Z,23.40
2023-07-02T15:21:25.628Z,23.30
2023-07-02T15:23:56.688Z,23.20
2023-07-02T15:26:27.319Z,23.10
2023-07-02T15:28:55.359Z,23.10
2023-07-02T15:31:23.422Z,22.90
2023-07-02T15:33:51.441Z,22.90
2023-07-02T15:36:22.583Z,23.00
2023-07-02T15:38:50.892Z,23.10
2023-07-02T15:41:21.709Z,23.20
2023-07-02T15:43:53.845Z,23.30
2023-07-02T15:46:24.639Z,23.30
2023-07-02T15:48:53.108Z,23.30
2023-07-02T15:51:24.431Z,23.40
2023-07-02T15:53:55.156Z,23.50
2023-07-02T15:56:27.122Z,23.40
2023-07-02T15:58:55.140Z,23.40
2023-07-02T16:01:23.146Z,23.40
2023-07-02T16:03:51.567Z,23.20
2023-07-02T16:06:19.904Z,23.20
2023-07-02T16:08:49.327Z,23.30
2023-07-02T16:11:17.335Z,23.30
2023-07-02T16:13:45.972Z,23.30
2023-07-02T16:16:14.136Z,23.10
2023-07-02T16:18:42.677Z,23.10
2023-07-02T16:21:10.674Z,23.10
2023-07-02T16:23:38.678Z,23.10
2023-07-02T16:26:09.473Z,23.20
2023-07-02T16:28:39.765Z,23.20
2023-07-02T16:31:09.843Z,23.20
2023-07-02T16:33:38.547Z,23.00
2023-07-02T16:36:11.529Z,22.80
2023-07-02T16:38:40.074Z,22.80
2023-07-02T16:41:14.072Z,22.70
2023-07-02T16:43:42.312Z,22.70
2023-07-02T16:46:10.411Z,22.80
2023-07-02T16:48:38.850Z,22.90
2023-07-02T16:51:08.937Z,22.80
2023-07-02T16:53:38.073Z,22.90
2023-07-02T16:56:08.102Z,22.70
2023-07-02T16:58:37.484Z,22.70
2023-07-02T17:01:08.628Z,22.70
2023-07-02T17:03:36.893Z,22.50
2023-07-02T17:06:07.330Z,22.50
2023-07-02T17:08:37.656Z,22.50
2023-07-02T17:11:07.013Z,22.50
2023-07-02T17:13:35.791Z,22.50
2023-07-02T17:16:07.069Z,22.40
2023-07-02T17:18:35.578Z,22.30
2023-07-02T17:21:04.115Z,22.30
2023-07-02T17:23:33.121Z,22.20
2023-07-02T17:26:07.522Z,22.20
2023-07-02T17:28:35.863Z,22.20
2023-07-02T17:31:05.685Z,22.10
2023-07-02T17:33:33.826Z,22.00
2023-07-02T17:36:01.886Z,22.00
2023-07-02T17:38:29.897Z,21.90
2023-07-02T17:40:57.913Z,21.90
2023-07-02T17:43:25.977Z,21.80
2023-07-02T17:45:57.270Z,21.80
2023-07-02T17:48:27.864Z,21.80
2023-07-02T17:50:57.058Z,21.80
2023-07-02T17:53:25.801Z,21.70
2023-07-02T17:55:53.957Z,21.60
2023-07-02T17:58:22.142Z,21.50
2023-07-02T18:00:50.866Z,21.50
2023-07-02T18:03:19.403Z,21.50
2023-07-02T18:05:49.505Z,21.40
2023-07-02T18:08:17.889Z,21.40
2023-07-02T18:10:49.857Z,21.40
2023-07-02T18:13:18.722Z,21.40
2023-07-02T18:15:51.690Z,21.40
2023-07-02T18:18:20.421Z,21.30
2023-07-02T18:20:52.013Z,21.30
2023-07-02T18:23:20.801Z,21.20
2023-07-02T18:25:53.953Z,21.10
2023-07-02T18:28:26.452Z,21.10
2023-07-02T18:30:57.093Z,21.10
2023-07-02T18:33:25.526Z,21.00
2023-07-02T18:35:55.083Z,21.00
2023-07-02T18:38:23.708Z,21.00
2023-07-02T18:41:02.479Z,20.90
2023-07-02T18:43:30.545Z,20.90
2023-07-02T18:45:58.780Z,20.90
2023-07-02T18:48:27.338Z,20.90
2023-07-02T18:50:57.118Z,20.80
2023-07-02T18:53:26.447Z,20.80
2023-07-02T18:55:59.046Z,20.70
2023-07-02T18:58:28.598Z,20.70
2023-07-02T19:00:57.017Z,20.50
2023-07-02T19:03:25.344Z,20.50
2023-07-02T19:05:53.576Z,20.50
2023-07-02T19:08:23.662Z,20.50
2023-07-02T19:11:01.069Z,20.50
2023-07-02T19:13:29.250Z,20.50
2023-07-02T19:15:57.533Z,20.40
2023-07-02T19:18:25.785Z,20.40
2023-07-02T19:20:54.134Z,20.40
2023-07-02T19:23:23.485Z,20.40
2023-07-02T19:25:55.016Z,20.40
2023-07-02T19:28:23.006Z,20.40
2023-07-02T19:31:03.693Z,20.30
2023-07-02T19:33:32.283Z,20.30
2023-07-02T19:36:05.312Z,20.30
2023-07-02T19:38:34.851Z,20.20
2023-07-02T19:41:09.837Z,20.20
2023-07-02T19:43:37.943Z,20.20
2023-07-02T19:46:11.867Z,20.20
2023-07-02T19:48:39.938Z,20.10
2023-07-02T19:51:10.957Z,20.10
2023-07-02T19:53:41.075Z,20.10
2023-07-02T19:56:10.807Z,20.10
2023-07-02T19:58:40.467Z,19.90
2023-07-02T20:01:11.016Z,19.90
2023-07-02T20:03:55.017Z,19.90
2023-07-02T20:06:23.491Z,19.80
2023-07-02T20:08:52.960Z,19.80
2023-07-02T20:11:30.130Z,19.80
2023-07-02T20:14:01.215Z,19.70
2023-07-02T20:16:29.406Z,19.70
2023-07-02T20:19:13.692Z,19.70
2023-07-02T20:21:42.001Z,19.60
2023-07-02T20:24:11.487Z,19.60
2023-07-02T20:26:42.395Z,19.50
2023-07-02T20:29:10.428Z,19.50
2023-07-02T20:31:38.458Z,19.40
2023-07-02T20:34:06.590Z,19.40
2023-07-02T20:36:34.603Z,19.40
2023-07-02T20:39:02.949Z,19.30
2023-07-02T20:41:32.459Z,19.30
2023-07-02T20:44:06.297Z,19.20
2023-07-02T20:46:34.986Z,19.20
2023-07-02T20:49:06.285Z,19.10
2023-07-02T20:51:36.219Z,19.10
2023-07-02T20:54:06.260Z,19.10
2023-07-02T20:56:35.705Z,19.00
2023-07-02T20:59:03.758Z,19.00
2023-07-02T21:01:34.884Z,19.00
2023-07-02T21:04:07.561Z,18.90
2023-07-02T21:06:36.036Z,18.90
2023-07-02T21:09:05.503Z,18.80
2023-07-02T21:11:35.121Z,18.80
2023-07-02T21:14:04.075Z,18.80
2023-07-02T21:16:32.712Z,18.70
2023-07-02T21:19:04.963Z,18.70
2023-07-02T21:21:33.001Z,18.70
2023-07-02T21:24:01.156Z,18.70
2023-07-02T21:26:32.264Z,18.60
2023-07-02T21:29:04.413Z,18.60
2023-07-02T21:31:32.541Z,18.60
2023-07-02T21:34:16.650Z,18.60
2023-07-02T21:36:44.706Z,18.60
2023-07-02T21:39:12.921Z,18.60
2023-07-02T21:41:44.049Z,18.50
2023-07-02T21:44:13.573Z,18.50
2023-07-02T21:46:47.528Z,18.50
2023-07-02T21:49:15.932Z,18.40
2023-07-02T21:51:43.972Z,18.40
2023-07-02T21:54:12.033Z,18.40
2023-07-02T21:56:43.079Z,18.40
2023-07-02T21:59:23.502Z,18.30
2023-07-02T22:02:03.469Z,18.30
2023-07-02T22:04:31.664Z,18.20
2023-07-02T22:06:59.753Z,18.20
2023-07-02T22:09:27.756Z,18.20
2023-07-02T22:11:55.740Z,18.20
2023-07-02T22:14:25.127Z,18.10
2023-07-02T22:17:11.174Z,18.10
2023-07-02T22:19:39.713Z,18.00
2023-07-02T22:22:10.236Z,18.00
2023-07-02T22:24:49.486Z,17.90
2023-07-02T22:27:17.495Z,17.90
2023-07-02T22:29:46.853Z,17.80
2023-07-02T22:32:14.845Z,17.80
2023-07-02T22:34:46.734Z,17.80
2023-07-02T22:37:14.747Z,17.80
2023-07-02T22:39:51.879Z,17.70
2023-07-02T22:42:19.875Z,17.70
2023-07-02T22:44:49.353Z,17.70
2023-07-02T22:47:20.274Z,17.70
2023-07-02T22:49:51.110Z,17.60
2023-07-02T22:52:26.770Z,17.60
2023-07-02T22:54:55.225Z,17.50
2023-07-02T22:57:24.042Z,17.50
2023-07-02T22:59:53.774Z,17.50
2023-07-02T23:02:24.326Z,17.50
2023-07-02T23:05:01.296Z,17.40
2023-07-02T23:07:32.217Z,17.40
2023-07-02T23:10:00.988Z,17.40
2023-07-02T23:12:32.118Z,17.30
2023-07-02T23:15:04.385Z,17.30
2023-07-02T23:17:38.785Z,17.30
2023-07-02T23:20:08.123Z,17.30
2023-07-02T23:22:41.070Z,17.30
2023-07-02T23:25:21.535Z,17.20
2023-07-02T23:27:54.425Z,17.20
2023-07-02T23:30:28.606Z,17.10
2023-07-02T23:33:07.154Z,17.10
2023-07-02T23:35:35.556Z,17.10
2023-07-02T23:38:05.082Z,17.00
2023-07-02T23:40:33.807Z,17.00
2023-07-02T23:43:02.641Z,16.90
2023-07-02T23:45:39.493Z,16.90
2023-07-02T23:48:08.012Z,16.90
2023-07-02T23:50:38.514Z,16.90
2023-07-02T23:53:09.379Z,16.90
2023-07-02T23:55:37.399Z,16.90
2023-07-02T23:58:05.556Z,16.90
